sensor_id;sensor_type;location;lat;lon;timestamp;temperature;humidity
12384;DHT22;6256;63.808;20.336;2023-08-12T00:01:56;14.70;99.90
12384;DHT22;6256;63.808;20.336;2023-08-12T00:04:21;14.70;99.90
12384;DHT22;6256;63.808;20.336;2023-08-12T00:06:48;14.80;99.90
12384;DHT22;6256;63.808;20.336;2023-08-12T00:09:14;14.80;99.90
12384;DHT22;6256;63.808;20.336;2023-08-12T00:11:40;14.80;99.90
12384;DHT22;6256;63.808;20.336;2023-08-12T00:14:06;14.80;99.90
12384;DHT22;6256;63.808;20.336;2023-08-12T00:16:32;14.80;99.90
12384;DHT22;6256;63.808;20.336;2023-08-12T00:18:57;14.90;99.90
12384;DHT22;6256;63.808;20.336;2023-08-12T00:21:25;14.90;99.90
12384;DHT22;6256;63.808;20.336;2023-08-12T00:23:51;14.90;99.90
12384;DHT22;6256;63.808;20.336;2023-08-12T00:26:16;14.90;99.90
12384;DHT22;6256;63.808;20.336;2023-08-12T00:28:42;14.90;99.90
12384;DHT22;6256;63.808;20.336;2023-08-12T00:31:08;14.90;99.90
12384;DHT22;6256;63.808;20.336;2023-08-12T00:33:34;14.90;99.90
12384;DHT22;6256;63.808;20.336;2023-08-12T00:36:00;14.80;99.90
12384;DHT22;6256;63.808;20.336;2023-08-12T00:38:25;14.80;99.90
12384;DHT22;6256;63.808;20.336;2023-08-12T00:40:51;14.80;99.90
12384;DHT22;6256;63.808;20.336;2023-08-12T00:43:17;14.70;99.90
12384;DHT22;6256;63.808;20.336;2023-08-12T00:45:43;14.70;99.90
12384;DHT22;6256;63.808;20.336;2023-08-12T00:48:09;14.70;99.90
12384;DHT22;6256;63.808;20.336;2023-08-12T00:50:39;14.60;99.90
12384;DHT22;6256;63.808;20.336;2023-08-12T00:53:06;14.60;99.90
12384;DHT22;6256;63.808;20.336;2023-08-12T00:55:33;14.60;99.90
12384;DHT22;6256;63.808;20.336;2023-08-12T00:57:59;14.60;99.90
12384;DHT22;6256;63.808;20.336;2023-08-12T01:00:25;14.60;99.90
12384;DHT22;6256;63.808;20.336;2023-08-12T01:02:51;14.50;99.90
12384;DHT22;6256;63.808;20.336;2023-08-12T01:05:17;14.50;99.90
12384;DHT22;6256;63.808;20.336;2023-08-12T01:07:43;14.50;99.90
12384;DHT22;6256;63.808;20.336;2023-08-12T01:10:10;14.50;99.90
12384;DHT22;6256;63.808;20.336;2023-08-12T01:12:50;14.60;99.90
12384;DHT22;6256;63.808;20.336;2023-08-12T01:15:25;14.60;99.90
12384;DHT22;6256;63.808;20.336;2023-08-12T01:17:54;14.60;99.90
12384;DHT22;6256;63.808;20.336;2023-08-12T01:20:21;14.60;99.90
12384;DHT22;6256;63.808;20.336;2023-08-12T01:22:57;14.70;99.90
12384;DHT22;6256;63.808;20.336;2023-08-12T01:25:25;14.60;99.90
12384;DHT22;6256;63.808;20.336;2023-08-12T01:27:51;14.70;99.90
12384;DHT22;6256;63.808;20.336;2023-08-12T01:30:18;14.70;99.90
12384;DHT22;6256;63.808;20.336;2023-08-12T01:32:56;14.70;99.90
12384;DHT22;6256;63.808;20.336;2023-08-12T01:35:27;14.70;99.90
12384;DHT22;6256;63.808;20.336;2023-08-12T01:37:57;14.70;99.90
12384;DHT22;6256;63.808;20.336;2023-08-12T01:40:24;14.70;99.90
12384;DHT22;6256;63.808;20.336;2023-08-12T01:42:50;14.80;99.90
12384;DHT22;6256;63.808;20.336;2023-08-12T01:45:18;14.80;99.90
12384;DHT22;6256;63.808;20.336;2023-08-12T01:47:45;14.80;99.90
12384;DHT22;6256;63.808;20.336;2023-08-12T01:50:11;14.70;99.90
12384;DHT22;6256;63.808;20.336;2023-08-12T01:52:36;14.80;99.90
12384;DHT22;6256;63.808;20.336;2023-08-12T01:55:02;14.70;99.90
12384;DHT22;6256;63.808;20.336;2023-08-12T01:57:28;14.70;99.90
12384;DHT22;6256;63.808;20.336;2023-08-12T01:59:54;14.80;99.90
12384;DHT22;6256;63.808;20.336;2023-08-12T02:02:20;14.70;99.90
12384;DHT22;6256;63.808;20.336;2023-08-12T02:04:46;14.80;99.90
12384;DHT22;6256;63.808;20.336;2023-08-12T02:07:11;14.80;99.90
12384;DHT22;6256;63.808;20.336;2023-08-12T02:09:37;14.80;99.90
12384;DHT22;6256;63.808;20.336;2023-08-12T02:12:03;14.80;99.90
12384;DHT22;6256;63.808;20.336;2023-08-12T02:14:29;14.80;99.90
12384;DHT22;6256;63.808;20.336;2023-08-12T02:16:55;14.90;99.90
12384;DHT22;6256;63.808;20.336;2023-08-12T02:19:20;14.80;99.90
12384;DHT22;6256;63.808;20.336;2023-08-12T02:21:46;14.90;99.90
12384;DHT22;6256;63.808;20.336;2023-08-12T02:24:12;14.80;99.90
12384;DHT22;6256;63.808;20.336;2023-08-12T02:26:38;14.90;99.90
12384;DHT22;6256;63.808;20.336;2023-08-12T02:29:04;14.90;99.90
12384;DHT22;6256;63.808;20.336;2023-08-12T02:31:29;14.80;99.90
12384;DHT22;6256;63.808;20.336;2023-08-12T02:33:55;14.90;99.90
12384;DHT22;6256;63.808;20.336;2023-08-12T02:36:21;14.90;99.90
12384;DHT22;6256;63.808;20.336;2023-08-12T02:38:47;14.80;99.90
12384;DHT22;6256;63.808;20.336;2023-08-12T02:41:12;14.90;99.90
12384;DHT22;6256;63.808;20.336;2023-08-12T02:43:38;14.90;99.90
12384;DHT22;6256;63.808;20.336;2023-08-12T02:46:04;14.90;99.90
12384;DHT22;6256;63.808;20.336;2023-08-12T02:48:29;14.90;99.90
12384;DHT22;6256;63.808;20.336;2023-08-12T02:50:55;14.90;99.90
12384;DHT22;6256;63.808;20.336;2023-08-12T02:53:21;14.90;99.90
12384;DHT22;6256;63.808;20.336;2023-08-12T02:55:46;14.90;99.90
12384;DHT22;6256;63.808;20.336;2023-08-12T02:58:12;14.90;99.90
12384;DHT22;6256;63.808;20.336;2023-08-12T03:00:41;15.00;99.90
12384;DHT22;6256;63.808;20.336;2023-08-12T03:03:09;14.90;99.90
12384;DHT22;6256;63.808;20.336;2023-08-12T03:05:35;15.00;99.90
12384;DHT22;6256;63.808;20.336;2023-08-12T03:08:01;14.90;99.90
12384;DHT22;6256;63.808;20.336;2023-08-12T03:10:29;14.90;99.90
12384;DHT22;6256;63.808;20.336;2023-08-12T03:12:55;14.90;99.90
12384;DHT22;6256;63.808;20.336;2023-08-12T03:15:21;14.90;99.90
12384;DHT22;6256;63.808;20.336;2023-08-12T03:17:46;14.90;99.90
12384;DHT22;6256;63.808;20.336;2023-08-12T03:20:12;15.00;99.90
12384;DHT22;6256;63.808;20.336;2023-08-12T03:22:38;15.00;99.90
12384;DHT22;6256;63.808;20.336;2023-08-12T03:25:05;15.00;99.90
12384;DHT22;6256;63.808;20.336;2023-08-12T03:27:30;15.00;99.90
12384;DHT22;6256;63.808;20.336;2023-08-12T03:29:56;15.10;99.90
12384;DHT22;6256;63.808;20.336;2023-08-12T03:32:23;15.10;99.90
12384;DHT22;6256;63.808;20.336;2023-08-12T03:34:49;15.10;99.90
12384;DHT22;6256;63.808;20.336;2023-08-12T03:37:15;15.20;99.90
12384;DHT22;6256;63.808;20.336;2023-08-12T03:39:41;15.20;99.90
12384;DHT22;6256;63.808;20.336;2023-08-12T03:42:06;15.20;99.90
12384;DHT22;6256;63.808;20.336;2023-08-12T03:44:32;15.20;99.90
12384;DHT22;6256;63.808;20.336;2023-08-12T03:46:57;15.20;99.90
12384;DHT22;6256;63.808;20.336;2023-08-12T03:49:23;15.20;99.90
12384;DHT22;6256;63.808;20.336;2023-08-12T03:51:49;15.20;99.90
12384;DHT22;6256;63.808;20.336;2023-08-12T03:54:14;15.20;99.90
12384;DHT22;6256;63.808;20.336;2023-08-12T03:56:40;15.20;99.90
12384;DHT22;6256;63.808;20.336;2023-08-12T03:59:06;15.20;99.90
12384;DHT22;6256;63.808;20.336;2023-08-12T04:01:31;15.30;99.90
12384;DHT22;6256;63.808;20.336;2023-08-12T04:03:57;15.30;99.90
12384;DHT22;6256;63.808;20.336;2023-08-12T04:06:23;15.40;99.90
12384;DHT22;6256;63.808;20.336;2023-08-12T04:08:48;15.40;99.90
12384;DHT22;6256;63.808;20.336;2023-08-12T04:11:14;15.50;99.90
12384;DHT22;6256;63.808;20.336;2023-08-12T04:13:40;15.50;99.90
12384;DHT22;6256;63.808;20.336;2023-08-12T04:16:05;15.60;99.90
12384;DHT22;6256;63.808;20.336;2023-08-12T04:18:31;15.60;99.90
12384;DHT22;6256;63.808;20.336;2023-08-12T04:20:57;15.70;99.90
12384;DHT22;6256;63.808;20.336;2023-08-12T04:23:23;15.70;99.90
12384;DHT22;6256;63.808;20.336;2023-08-12T04:25:49;15.80;99.90
12384;DHT22;6256;63.808;20.336;2023-08-12T04:28:15;15.90;99.90
12384;DHT22;6256;63.808;20.336;2023-08-12T04:30:45;16.00;99.90
12384;DHT22;6256;63.808;20.336;2023-08-12T04:33:12;16.00;99.90
12384;DHT22;6256;63.808;20.336;2023-08-12T04:35:38;15.90;99.90
12384;DHT22;6256;63.808;20.336;2023-08-12T04:38:04;16.00;99.90
12384;DHT22;6256;63.808;20.336;2023-08-12T04:40:30;16.00;99.90
12384;DHT22;6256;63.808;20.336;2023-08-12T04:42:56;15.90;99.90
12384;DHT22;6256;63.808;20.336;2023-08-12T04:45:22;15.90;99.90
12384;DHT22;6256;63.808;20.336;2023-08-12T04:47:47;16.00;99.90
12384;DHT22;6256;63.808;20.336;2023-08-12T04:50:13;16.10;99.90
12384;DHT22;6256;63.808;20.336;2023-08-12T04:52:39;16.20;99.90
12384;DHT22;6256;63.808;20.336;2023-08-12T04:55:05;16.30;99.90
12384;DHT22;6256;63.808;20.336;2023-08-12T04:57:31;16.20;99.90
12384;DHT22;6256;63.808;20.336;2023-08-12T04:59:56;16.20;99.90
12384;DHT22;6256;63.808;20.336;2023-08-12T05:02:22;16.30;99.90
12384;DHT22;6256;63.808;20.336;2023-08-12T05:04:49;16.30;99.90
12384;DHT22;6256;63.808;20.336;2023-08-12T05:07:15;16.40;99.90
12384;DHT22;6256;63.808;20.336;2023-08-12T05:09:41;16.40;99.90
12384;DHT22;6256;63.808;20.336;2023-08-12T05:12:09;16.50;99.90
12384;DHT22;6256;63.808;20.336;2023-08-12T05:14:35;16.50;99.90
12384;DHT22;6256;63.808;20.336;2023-08-12T05:17:01;16.50;99.90
12384;DHT22;6256;63.808;20.336;2023-08-12T05:19:27;16.50;99.90
12384;DHT22;6256;63.808;20.336;2023-08-12T05:21:53;16.50;99.90
12384;DHT22;6256;63.808;20.336;2023-08-12T05:24:18;16.40;99.90
12384;DHT22;6256;63.808;20.336;2023-08-12T05:26:44;16.30;99.90
12384;DHT22;6256;63.808;20.336;2023-08-12T05:29:10;16.40;99.90
12384;DHT22;6256;63.808;20.336;2023-08-12T05:31:36;16.50;99.90
12384;DHT22;6256;63.808;20.336;2023-08-12T05:34:02;16.70;99.90
12384;DHT22;6256;63.808;20.336;2023-08-12T05:36:28;16.80;99.90
12384;DHT22;6256;63.808;20.336;2023-08-12T05:38:54;16.80;99.90
12384;DHT22;6256;63.808;20.336;2023-08-12T05:41:20;16.90;99.90
12384;DHT22;6256;63.808;20.336;2023-08-12T05:43:47;16.80;99.90
12384;DHT22;6256;63.808;20.336;2023-08-12T05:46:13;16.80;99.90
12384;DHT22;6256;63.808;20.336;2023-08-12T05:48:39;16.70;99.90
12384;DHT22;6256;63.808;20.336;2023-08-12T05:51:04;16.60;99.90
12384;DHT22;6256;63.808;20.336;2023-08-12T05:53:30;16.50;99.90
12384;DHT22;6256;63.808;20.336;2023-08-12T05:55:56;16.50;99.90
12384;DHT22;6256;63.808;20.336;2023-08-12T05:58:21;16.60;99.90
12384;DHT22;6256;63.808;20.336;2023-08-12T06:00:47;16.70;99.90
12384;DHT22;6256;63.808;20.336;2023-08-12T06:03:13;16.90;99.90
12384;DHT22;6256;63.808;20.336;2023-08-12T06:05:40;17.20;99.90
12384;DHT22;6256;63.808;20.336;2023-08-12T06:08:06;17.40;99.90
12384;DHT22;6256;63.808;20.336;2023-08-12T06:10:33;17.60;99.90
12384;DHT22;6256;63.808;20.336;2023-08-12T06:12:59;17.80;99.90
12384;DHT22;6256;63.808;20.336;2023-08-12T06:15:25;17.80;99.90
12384;DHT22;6256;63.808;20.336;2023-08-12T06:17:50;17.60;99.90
12384;DHT22;6256;63.808;20.336;2023-08-12T06:20:16;17.40;99.90
12384;DHT22;6256;63.808;20.336;2023-08-12T06:22:42;17.40;99.90
12384;DHT22;6256;63.808;20.336;2023-08-12T06:25:08;17.20;99.90
12384;DHT22;6256;63.808;20.336;2023-08-12T06:27:34;17.20;99.90
12384;DHT22;6256;63.808;20.336;2023-08-12T06:29:59;17.20;99.90
12384;DHT22;6256;63.808;20.336;2023-08-12T06:32:25;17.20;99.90
12384;DHT22;6256;63.808;20.336;2023-08-12T06:34:51;17.10;99.90
12384;DHT22;6256;63.808;20.336;2023-08-12T06:37:16;17.20;99.90
12384;DHT22;6256;63.808;20.336;2023-08-12T06:39:42;17.20;99.90
12384;DHT22;6256;63.808;20.336;2023-08-12T06:42:08;17.20;99.90
12384;DHT22;6256;63.808;20.336;2023-08-12T06:44:34;17.20;99.90
12384;DHT22;6256;63.808;20.336;2023-08-12T06:46:59;17.20;99.90
12384;DHT22;6256;63.808;20.336;2023-08-12T06:49:25;17.30;99.90
12384;DHT22;6256;63.808;20.336;2023-08-12T06:51:50;17.30;99.90
12384;DHT22;6256;63.808;20.336;2023-08-12T06:54:16;17.30;99.90
12384;DHT22;6256;63.808;20.336;2023-08-12T06:56:42;17.40;99.90
12384;DHT22;6256;63.808;20.336;2023-08-12T06:59:08;17.40;99.90
12384;DHT22;6256;63.808;20.336;2023-08-12T07:01:34;17.30;99.90
12384;DHT22;6256;63.808;20.336;2023-08-12T07:04:00;17.30;99.90
12384;DHT22;6256;63.808;20.336;2023-08-12T07:06:26;17.30;99.90
12384;DHT22;6256;63.808;20.336;2023-08-12T07:08:52;17.30;99.90
12384;DHT22;6256;63.808;20.336;2023-08-12T07:11:17;17.50;99.90
12384;DHT22;6256;63.808;20.336;2023-08-12T07:13:43;17.40;99.90
12384;DHT22;6256;63.808;20.336;2023-08-12T07:16:11;17.50;99.90
12384;DHT22;6256;63.808;20.336;2023-08-12T07:18:37;17.50;99.90
12384;DHT22;6256;63.808;20.336;2023-08-12T07:21:03;17.40;99.90
12384;DHT22;6256;63.808;20.336;2023-08-12T07:23:29;17.50;99.90
12384;DHT22;6256;63.808;20.336;2023-08-12T07:25:55;17.60;99.90
12384;DHT22;6256;63.808;20.336;2023-08-12T07:28:21;17.90;99.90
12384;DHT22;6256;63.808;20.336;2023-08-12T07:30:48;17.90;99.90
12384;DHT22;6256;63.808;20.336;2023-08-12T07:33:14;17.90;99.90
12384;DHT22;6256;63.808;20.336;2023-08-12T07:35:40;17.90;99.90
12384;DHT22;6256;63.808;20.336;2023-08-12T07:38:06;18.00;99.90
12384;DHT22;6256;63.808;20.336;2023-08-12T07:40:32;18.20;99.90
12384;DHT22;6256;63.808;20.336;2023-08-12T07:42:58;18.40;99.90
12384;DHT22;6256;63.808;20.336;2023-08-12T07:45:24;18.50;99.90
12384;DHT22;6256;63.808;20.336;2023-08-12T07:47:50;18.70;99.90
12384;DHT22;6256;63.808;20.336;2023-08-12T07:50:16;18.80;99.90
12384;DHT22;6256;63.808;20.336;2023-08-12T07:52:42;18.80;99.90
12384;DHT22;6256;63.808;20.336;2023-08-12T07:55:08;19.00;99.90
12384;DHT22;6256;63.808;20.336;2023-08-12T07:57:33;18.90;99.90
12384;DHT22;6256;63.808;20.336;2023-08-12T07:59:59;18.70;99.90
12384;DHT22;6256;63.808;20.336;2023-08-12T08:02:25;18.70;99.90
12384;DHT22;6256;63.808;20.336;2023-08-12T08:04:50;18.70;99.90
12384;DHT22;6256;63.808;20.336;2023-08-12T08:07:16;18.60;99.90
12384;DHT22;6256;63.808;20.336;2023-08-12T08:09:43;18.60;99.90
12384;DHT22;6256;63.808;20.336;2023-08-12T08:12:09;18.40;99.90
12384;DHT22;6256;63.808;20.336;2023-08-12T08:14:35;18.40;99.90
12384;DHT22;6256;63.808;20.336;2023-08-12T08:17:01;18.60;99.90
12384;DHT22;6256;63.808;20.336;2023-08-12T08:19:27;18.80;99.90
12384;DHT22;6256;63.808;20.336;2023-08-12T08:21:53;18.70;99.90
12384;DHT22;6256;63.808;20.336;2023-08-12T08:24:18;18.70;99.90
12384;DHT22;6256;63.808;20.336;2023-08-12T08:26:44;18.80;99.90
12384;DHT22;6256;63.808;20.336;2023-08-12T08:29:12;18.80;99.90
12384;DHT22;6256;63.808;20.336;2023-08-12T08:31:38;18.50;99.90
12384;DHT22;6256;63.808;20.336;2023-08-12T08:34:04;18.60;99.90
12384;DHT22;6256;63.808;20.336;2023-08-12T08:36:30;18.70;99.90
12384;DHT22;6256;63.808;20.336;2023-08-12T08:38:56;18.60;99.90
12384;DHT22;6256;63.808;20.336;2023-08-12T08:41:22;18.60;99.90
12384;DHT22;6256;63.808;20.336;2023-08-12T08:43:50;18.50;99.90
12384;DHT22;6256;63.808;20.336;2023-08-12T08:46:18;18.70;99.90
12384;DHT22;6256;63.808;20.336;2023-08-12T08:48:44;18.70;99.90
12384;DHT22;6256;63.808;20.336;2023-08-12T08:51:11;18.60;99.90
12384;DHT22;6256;63.808;20.336;2023-08-12T08:53:41;18.70;99.90
12384;DHT22;6256;63.808;20.336;2023-08-12T08:56:07;18.50;99.90
12384;DHT22;6256;63.808;20.336;2023-08-12T08:58:37;18.40;99.90
12384;DHT22;6256;63.808;20.336;2023-08-12T09:01:03;18.70;99.90
12384;DHT22;6256;63.808;20.336;2023-08-12T09:03:32;18.50;99.90
12384;DHT22;6256;63.808;20.336;2023-08-12T09:05:59;18.40;99.90
12384;DHT22;6256;63.808;20.336;2023-08-12T09:08:25;18.30;99.90
12384;DHT22;6256;63.808;20.336;2023-08-12T09:10:52;18.20;99.90
12384;DHT22;6256;63.808;20.336;2023-08-12T09:13:18;18.30;99.90
12384;DHT22;6256;63.808;20.336;2023-08-12T09:15:44;18.40;99.90
12384;DHT22;6256;63.808;20.336;2023-08-12T09:18:10;18.40;99.90
12384;DHT22;6256;63.808;20.336;2023-08-12T09:20:36;18.60;99.90
12384;DHT22;6256;63.808;20.336;2023-08-12T09:23:02;18.60;99.90
12384;DHT22;6256;63.808;20.336;2023-08-12T09:25:31;18.40;99.90
12384;DHT22;6256;63.808;20.336;2023-08-12T09:28:00;18.70;99.90
12384;DHT22;6256;63.808;20.336;2023-08-12T09:30:29;18.80;99.90
12384;DHT22;6256;63.808;20.336;2023-08-12T09:33:00;18.90;99.90
12384;DHT22;6256;63.808;20.336;2023-08-12T09:35:33;18.80;99.90
12384;DHT22;6256;63.808;20.336;2023-08-12T09:38:01;18.80;99.90
12384;DHT22;6256;63.808;20.336;2023-08-12T09:40:27;18.90;99.90
12384;DHT22;6256;63.808;20.336;2023-08-12T09:42:53;19.20;99.90
12384;DHT22;6256;63.808;20.336;2023-08-12T09:45:23;19.40;99.90
12384;DHT22;6256;63.808;20.336;2023-08-12T09:47:49;19.20;99.90
12384;DHT22;6256;63.808;20.336;2023-08-12T09:50:15;19.50;99.90
12384;DHT22;6256;63.808;20.336;2023-08-12T09:52:40;19.50;99.90
12384;DHT22;6256;63.808;20.336;2023-08-12T09:55:08;19.60;99.90
12384;DHT22;6256;63.808;20.336;2023-08-12T10:00:02;19.80;99.90
12384;DHT22;6256;63.808;20.336;2023-08-12T10:02:29;19.90;99.90
12384;DHT22;6256;63.808;20.336;2023-08-12T10:04:56;20.00;99.90
12384;DHT22;6256;63.808;20.336;2023-08-12T10:07:24;19.90;99.90
12384;DHT22;6256;63.808;20.336;2023-08-12T10:09:50;19.90;99.90
12384;DHT22;6256;63.808;20.336;2023-08-12T10:12:17;19.60;99.90
12384;DHT22;6256;63.808;20.336;2023-08-12T10:14:43;19.50;99.90
12384;DHT22;6256;63.808;20.336;2023-08-12T10:17:09;19.40;99.90
12384;DHT22;6256;63.808;20.336;2023-08-12T10:19:36;19.20;99.90
12384;DHT22;6256;63.808;20.336;2023-08-12T10:22:03;19.30;99.90
12384;DHT22;6256;63.808;20.336;2023-08-12T10:24:29;19.10;99.90
12384;DHT22;6256;63.808;20.336;2023-08-12T10:26:55;19.20;99.90
12384;DHT22;6256;63.808;20.336;2023-08-12T10:29:23;19.10;99.90
12384;DHT22;6256;63.808;20.336;2023-08-12T10:31:52;19.00;99.90
12384;DHT22;6256;63.808;20.336;2023-08-12T10:34:22;19.00;99.90
12384;DHT22;6256;63.808;20.336;2023-08-12T10:36:48;18.90;99.90
12384;DHT22;6256;63.808;20.336;2023-08-12T10:39:19;18.90;99.90
12384;DHT22;6256;63.808;20.336;2023-08-12T10:41:50;19.00;99.90
12384;DHT22;6256;63.808;20.336;2023-08-12T10:44:19;19.00;99.90
12384;DHT22;6256;63.808;20.336;2023-08-12T10:46:50;18.80;99.90
12384;DHT22;6256;63.808;20.336;2023-08-12T10:49:18;19.00;99.90
12384;DHT22;6256;63.808;20.336;2023-08-12T10:59:49;19.40;99.90
12384;DHT22;6256;63.808;20.336;2023-08-12T11:02:22;19.40;99.90
12384;DHT22;6256;63.808;20.336;2023-08-12T11:07:27;19.20;99.90
12384;DHT22;6256;63.808;20.336;2023-08-12T11:09:54;19.10;99.90
12384;DHT22;6256;63.808;20.336;2023-08-12T11:12:34;19.10;99.90
12384;DHT22;6256;63.808;20.336;2023-08-12T11:15:01;19.40;99.90
12384;DHT22;6256;63.808;20.336;2023-08-12T11:17:35;19.60;99.90
12384;DHT22;6256;63.808;20.336;2023-08-12T11:20:02;19.90;99.90
12384;DHT22;6256;63.808;20.336;2023-08-12T11:22:30;19.80;99.90
12384;DHT22;6256;63.808;20.336;2023-08-12T11:24:56;19.90;99.90
12384;DHT22;6256;63.808;20.336;2023-08-12T11:27:22;19.80;99.90
12384;DHT22;6256;63.808;20.336;2023-08-12T11:29:50;19.60;99.90
12384;DHT22;6256;63.808;20.336;2023-08-12T11:32:17;19.60;99.90
12384;DHT22;6256;63.808;20.336;2023-08-12T11:34:43;19.50;99.90
12384;DHT22;6256;63.808;20.336;2023-08-12T11:37:09;19.40;99.90
12384;DHT22;6256;63.808;20.336;2023-08-12T11:39:35;19.30;99.90
12384;DHT22;6256;63.808;20.336;2023-08-12T11:42:01;20.60;99.90
12384;DHT22;6256;63.808;20.336;2023-08-12T11:44:26;21.30;99.90
12384;DHT22;6256;63.808;20.336;2023-08-12T11:46:52;21.30;99.90
12384;DHT22;6256;63.808;20.336;2023-08-12T11:49:18;20.90;99.90
12384;DHT22;6256;63.808;20.336;2023-08-12T11:51:45;21.20;99.90
12384;DHT22;6256;63.808;20.336;2023-08-12T11:54:12;20.90;99.90
12384;DHT22;6256;63.808;20.336;2023-08-12T11:56:38;21.60;99.90
12384;DHT22;6256;63.808;20.336;2023-08-12T11:59:04;21.90;99.90
12384;DHT22;6256;63.808;20.336;2023-08-12T12:01:31;21.60;99.90
12384;DHT22;6256;63.808;20.336;2023-08-12T12:04:00;21.90;99.90
12384;DHT22;6256;63.808;20.336;2023-08-12T12:06:36;22.00;99.90
12384;DHT22;6256;63.808;20.336;2023-08-12T12:09:09;21.80;99.90
12384;DHT22;6256;63.808;20.336;2023-08-12T12:11:36;22.60;99.90
12384;DHT22;6256;63.808;20.336;2023-08-12T12:14:06;23.10;99.90
12384;DHT22;6256;63.808;20.336;2023-08-12T12:19:04;23.00;99.90
12384;DHT22;6256;63.808;20.336;2023-08-12T12:21:38;22.80;99.90
12384;DHT22;6256;63.808;20.336;2023-08-12T12:24:05;22.20;99.90
12384;DHT22;6256;63.808;20.336;2023-08-12T12:26:32;21.70;99.90
12384;DHT22;6256;63.808;20.336;2023-08-12T12:28:58;21.70;99.90
12384;DHT22;6256;63.808;20.336;2023-08-12T12:31:23;21.50;99.90
12384;DHT22;6256;63.808;20.336;2023-08-12T12:33:49;21.80;99.90
12384;DHT22;6256;63.808;20.336;2023-08-12T12:36:15;21.20;99.90
12384;DHT22;6256;63.808;20.336;2023-08-12T12:38:41;21.60;99.90
12384;DHT22;6256;63.808;20.336;2023-08-12T12:41:07;22.10;99.90
12384;DHT22;6256;63.808;20.336;2023-08-12T12:43:32;22.60;99.90
12384;DHT22;6256;63.808;20.336;2023-08-12T12:45:58;22.80;99.90
12384;DHT22;6256;63.808;20.336;2023-08-12T12:48:24;23.00;99.90
12384;DHT22;6256;63.808;20.336;2023-08-12T12:50:49;22.80;99.90
12384;DHT22;6256;63.808;20.336;2023-08-12T12:53:15;23.10;99.90
12384;DHT22;6256;63.808;20.336;2023-08-12T12:55:41;22.90;99.90
12384;DHT22;6256;63.808;20.336;2023-08-12T12:58:06;23.20;99.90
12384;DHT22;6256;63.808;20.336;2023-08-12T13:00:32;23.30;99.90
12384;DHT22;6256;63.808;20.336;2023-08-12T13:02:58;23.20;99.90
12384;DHT22;6256;63.808;20.336;2023-08-12T13:05:24;24.00;99.90
12384;DHT22;6256;63.808;20.336;2023-08-12T13:07:49;23.90;99.90
12384;DHT22;6256;63.808;20.336;2023-08-12T13:10:15;23.30;99.90
12384;DHT22;6256;63.808;20.336;2023-08-12T13:12:41;23.10;99.90
12384;DHT22;6256;63.808;20.336;2023-08-12T13:15:07;23.30;99.90
12384;DHT22;6256;63.808;20.336;2023-08-12T13:17:32;22.10;99.90
12384;DHT22;6256;63.808;20.336;2023-08-12T13:19:58;22.40;99.90
12384;DHT22;6256;63.808;20.336;2023-08-12T13:22:24;22.50;99.90
12384;DHT22;6256;63.808;20.336;2023-08-12T13:24:50;22.60;99.90
12384;DHT22;6256;63.808;20.336;2023-08-12T13:27:16;23.30;99.90
12384;DHT22;6256;63.808;20.336;2023-08-12T13:29:42;23.40;99.90
12384;DHT22;6256;63.808;20.336;2023-08-12T13:32:08;23.20;99.90
12384;DHT22;6256;63.808;20.336;2023-08-12T13:34:34;22.90;99.90
12384;DHT22;6256;63.808;20.336;2023-08-12T13:37:00;21.90;99.90
12384;DHT22;6256;63.808;20.336;2023-08-12T13:39:25;22.30;99.90
12384;DHT22;6256;63.808;20.336;2023-08-12T13:41:51;22.70;99.90
12384;DHT22;6256;63.808;20.336;2023-08-12T13:44:17;22.80;99.90
12384;DHT22;6256;63.808;20.336;2023-08-12T13:46:43;23.10;99.90
12384;DHT22;6256;63.808;20.336;2023-08-12T13:49:08;22.50;99.90
12384;DHT22;6256;63.808;20.336;2023-08-12T13:51:34;21.60;99.90
12384;DHT22;6256;63.808;20.336;2023-08-12T13:54:00;21.00;99.90
12384;DHT22;6256;63.808;20.336;2023-08-12T13:56:25;20.60;99.90
12384;DHT22;6256;63.808;20.336;2023-08-12T13:58:51;20.30;99.90
12384;DHT22;6256;63.808;20.336;2023-08-12T14:01:17;20.00;99.90
12384;DHT22;6256;63.808;20.336;2023-08-12T14:03:42;19.70;99.90
12384;DHT22;6256;63.808;20.336;2023-08-12T14:06:08;19.80;99.90
12384;DHT22;6256;63.808;20.336;2023-08-12T14:08:34;19.90;99.90
12384;DHT22;6256;63.808;20.336;2023-08-12T14:11:00;20.20;99.90
12384;DHT22;6256;63.808;20.336;2023-08-12T14:13:25;20.20;99.90
12384;DHT22;6256;63.808;20.336;2023-08-12T14:15:53;19.80;99.90
12384;DHT22;6256;63.808;20.336;2023-08-12T14:18:18;19.50;99.90
12384;DHT22;6256;63.808;20.336;2023-08-12T14:20:44;19.40;99.90
12384;DHT22;6256;63.808;20.336;2023-08-12T14:23:10;19.10;99.90
12384;DHT22;6256;63.808;20.336;2023-08-12T14:25:36;19.20;99.90
12384;DHT22;6256;63.808;20.336;2023-08-12T14:28:01;19.10;99.90
12384;DHT22;6256;63.808;20.336;2023-08-12T14:30:27;19.30;99.90
12384;DHT22;6256;63.808;20.336;2023-08-12T14:32:53;19.20;99.90
12384;DHT22;6256;63.808;20.336;2023-08-12T14:35:19;19.10;99.90
12384;DHT22;6256;63.808;20.336;2023-08-12T14:37:45;19.10;99.90
12384;DHT22;6256;63.808;20.336;2023-08-12T14:40:10;19.10;99.90
12384;DHT22;6256;63.808;20.336;2023-08-12T14:42:36;19.40;99.90
12384;DHT22;6256;63.808;20.336;2023-08-12T14:45:03;19.80;99.90
12384;DHT22;6256;63.808;20.336;2023-08-12T14:47:29;19.60;99.90
12384;DHT22;6256;63.808;20.336;2023-08-12T14:49:55;19.50;99.90
12384;DHT22;6256;63.808;20.336;2023-08-12T14:52:22;19.40;99.90
12384;DHT22;6256;63.808;20.336;2023-08-12T14:54:48;19.20;99.90
12384;DHT22;6256;63.808;20.336;2023-08-12T14:57:14;19.00;99.90
12384;DHT22;6256;63.808;20.336;2023-08-12T14:59:39;18.90;99.90
12384;DHT22;6256;63.808;20.336;2023-08-12T15:02:05;18.70;99.90
12384;DHT22;6256;63.808;20.336;2023-08-12T15:04:32;18.60;99.90
12384;DHT22;6256;63.808;20.336;2023-08-12T15:06:58;18.50;99.90
12384;DHT22;6256;63.808;20.336;2023-08-12T15:09:24;18.50;99.90
12384;DHT22;6256;63.808;20.336;2023-08-12T15:11:50;18.50;99.90
12384;DHT22;6256;63.808;20.336;2023-08-12T15:14:17;18.50;99.90
12384;DHT22;6256;63.808;20.336;2023-08-12T15:16:42;18.50;99.90
12384;DHT22;6256;63.808;20.336;2023-08-12T15:19:08;18.30;99.90
12384;DHT22;6256;63.808;20.336;2023-08-12T15:21:34;18.30;99.90
12384;DHT22;6256;63.808;20.336;2023-08-12T15:24:00;18.40;99.90
12384;DHT22;6256;63.808;20.336;2023-08-12T15:26:25;18.30;99.90
12384;DHT22;6256;63.808;20.336;2023-08-12T15:28:51;18.30;99.90
12384;DHT22;6256;63.808;20.336;2023-08-12T15:31:17;18.30;99.90
12384;DHT22;6256;63.808;20.336;2023-08-12T15:33:43;18.20;99.90
12384;DHT22;6256;63.808;20.336;2023-08-12T15:36:08;18.10;99.90
12384;DHT22;6256;63.808;20.336;2023-08-12T15:38:34;18.00;99.90
12384;DHT22;6256;63.808;20.336;2023-08-12T15:41:00;17.90;99.90